MaSS Merit — 3FNT3 — position and weather

sailwx.info

Track history (hours):
 
Tides and Currents Weather Stations Pressure Air Temp Water Temp Dewpoint Dewpoint Depression Visibility Wind Speed Wind Dir Waves Ship Positions

MaSS Merit

Last reported at 2013-Sep-16 22:29 UTC. Time now 2014-Nov-24 16:24 UTC.
Position N 31°55' E 120°10'.
Warning: this ship's position is years out of date!

Date/timePositionNaut miles runAvg speedWind from/ knotsBaromVisibWave heightAir tempDewpointWater temp
2013-Sep-16 22:29N 31°55' E 120°10'0 0.0
2013-Sep-16 21:33N 31°55' E 120°10'0 0.0
2013-Sep-16 16:08N 31°55' E 120°10'0 0.0
2013-Sep-16 15:33N 31°55' E 120°10'0 0.0
2013-Sep-16 14:26N 31°55' E 120°10'0 0.1
2013-Sep-16 13:32N 31°55' E 120°10'0 0.0
2013-Sep-16 12:33N 31°55' E 120°10'0 0.0
2013-Sep-16 11:33N 31°55' E 120°10'0 0.0
2013-Sep-16 10:33N 31°55' E 120°10'0 0.0
2013-Sep-16 09:33N 31°55' E 120°10'0 0.0
2013-Sep-16 08:33N 31°55' E 120°10'0 0.0
2013-Sep-16 07:33N 31°55' E 120°10'0 0.0
2013-Sep-16 06:34N 31°55' E 120°10'0 0.0
2013-Sep-16 05:33N 31°55' E 120°10'0 0.0
2013-Sep-16 04:33N 31°55' E 120°10'0 0.0
2013-Sep-16 03:33N 31°55' E 120°10'0 0.0
2013-Sep-16 02:33N 31°55' E 120°10'0 0.0
2013-Sep-16 01:33N 31°55' E 120°10'0 0.0
2013-Sep-16 00:31N 31°55' E 120°10'0 0.0
2013-Sep-15 23:32N 31°55' E 120°10'0 0.0
2013-Sep-15 22:28N 31°55' E 120°10'0 0.0
2013-Sep-15 21:33N 31°55' E 120°10'0 0.0
2013-Sep-15 20:31N 31°55' E 120°10'0 0.0
2013-Sep-15 19:33N 31°55' E 120°10'0 0.0
2013-Sep-15 18:33N 31°55' E 120°10'0 0.0
2013-Sep-15 17:33N 31°55' E 120°10'0 0.0
2013-Sep-15 16:33N 31°55' E 120°10'0 0.0
2013-Sep-15 15:33N 31°55' E 120°10'0 0.0
2013-Sep-15 14:34N 31°55' E 120°10'0 0.0
2013-Sep-15 13:33N 31°55' E 120°10'0 0.0
2013-Sep-15 12:33N 31°55' E 120°10'0 0.0
2013-Sep-15 11:34N 31°55' E 120°10'0 0.0
2013-Sep-15 10:33N 31°55' E 120°10'0 0.0
2013-Sep-15 09:34N 31°55' E 120°10'0 0.0
2013-Sep-15 08:33N 31°55' E 120°10'0 0.0
2013-Sep-15 07:33N 31°55' E 120°10'0 0.0
2013-Sep-15 06:34N 31°55' E 120°10'0 0.0
2013-Sep-15 05:33N 31°55' E 120°10'0 0.1
2013-Sep-15 04:33N 31°55' E 120°10'3 3.4
2013-Sep-15 03:34N 31°56' E 120°14'8 7.5
2013-Sep-15 02:34N 31°60' E 120°22'7 7.1
2013-Sep-15 01:33N 32°04' E 120°28'7 6.6
2013-Sep-15 00:34N 32°01' E 120°35'4 4.3
2013-Sep-14 23:33N 32°00' E 120°40'5 5.0
2013-Sep-14 22:33N 32°01' E 120°46'6 5.8
2013-Sep-14 21:33N 31°58' E 120°52'6 6.2
2013-Sep-14 20:33N 31°52' E 120°54'6 5.9
2013-Sep-14 19:33N 31°47' E 120°58'6 6.2
2013-Sep-14 18:33N 31°45' E 121°05'7 6.6
2013-Sep-14 17:32N 31°41' E 121°11'7 6.8
2013-Sep-14 16:33N 31°37' E 121°17'7 7.2
2013-Sep-14 15:33N 31°32' E 121°23'8 7.8
2013-Sep-14 14:33N 31°26' E 121°29'8 8.0
2013-Sep-14 13:33N 31°22' E 121°37'9 8.7
2013-Sep-14 12:33N 31°17' E 121°45'10 9.5
2013-Sep-14 11:28N 31°09' E 121°53'17 8.2
2013-Sep-14 09:22N 31°03' E 122°12'6 6.8
2013-Sep-14 08:32N 31°02' E 122°19'6 6.2
2013-Sep-14 07:33N 31°01' E 122°26'7 6.4
2013-Sep-14 06:32N 30°60' E 122°33'7 6.8
2013-Sep-14 05:33N 30°58' E 122°41'4 3.1
2013-Sep-14 04:26N 30°59' E 122°45'4 3.7
2013-Sep-14 03:14N 30°59' E 122°50'338 8.2
2013-Sep-12 10:05N 36°36' E 122°42'5 8.5
2013-Sep-12 09:29N 36°41' E 122°43'8 9.0
2013-Sep-12 08:33N 36°50' E 122°45'9 9.2
2013-Sep-12 07:33N 36°59' E 122°45'9 9.3
2013-Sep-12 06:33N 37°08' E 122°47'9 9.0
2013-Sep-12 05:33N 37°17' E 122°48'9 8.3
2013-Sep-12 04:29N 37°26' E 122°47'7 7.3
2013-Sep-12 03:31N 37°32' E 122°42'8 7.1
2013-Sep-12 02:28N 37°38' E 122°37'7 7.1
2013-Sep-12 01:32N 37°42' E 122°31'10 7.5
2013-Sep-12 00:15N 37°47' E 122°20'6 8.1
2013-Sep-11 23:28N 37°50' E 122°13'9 8.5
2013-Sep-11 22:25N 37°56' E 122°04'43 8.4
2013-Sep-11 17:13N 38°21' E 121°19'7 8.5
2013-Sep-11 16:25N 38°24' E 121°12'8 8.9
2013-Sep-11 15:30N 38°29' E 121°04'13 9.7
2013-Sep-11 14:12N 38°35' E 120°49'610.1
2013-Sep-11 13:33N 38°39' E 120°42'38 8.6
2013-Sep-11 09:08N 39°08' E 120°11'5 7.7
2013-Sep-11 08:33N 39°11' E 120°07'39 7.7
2013-Sep-11 03:31N 39°44' E 119°40'4 2.5
2013-Sep-11 02:08N 39°45' E 119°36'0 0.1
2013-Sep-11 01:08N 39°45' E 119°36'0 0.1
2013-Sep-11 00:32N 39°45' E 119°36'0 0.2
2013-Sep-10 23:32N 39°45' E 119°36'0 0.0
2013-Sep-10 22:26N 39°45' E 119°36'0 0.0
2013-Sep-10 21:32N 39°45' E 119°36'0 0.1
2013-Sep-10 20:32N 39°45' E 119°36'0 0.1
2013-Sep-10 19:32N 39°45' E 119°36'0 0.0
2013-Sep-10 18:32N 39°45' E 119°36'0 0.0
2013-Sep-10 17:08N 39°45' E 119°36'0 0.0
2013-Sep-10 15:31N 39°45' E 119°36'0 0.0
2013-Sep-10 14:31N 39°45' E 119°36'0 0.0
2013-Sep-10 13:31N 39°45' E 119°36'0 0.0
2013-Sep-10 12:31N 39°45' E 119°36'0 0.1
2013-Sep-10 11:25N 39°45' E 119°36'0 0.1
2013-Sep-10 10:19N 39°45' E 119°36'0 0.1
2013-Sep-10 06:32N 39°45' E 119°36'5 5.0
2013-Sep-10 05:33N 39°44' E 119°43'83 4.0
2013-Sep-09 08:30N 38°54' E 118°17'3 0.3
2013-Sep-08 20:32N 38°56' E 118°14'0 0.0
2013-Sep-08 19:23N 38°56' E 118°14'0 0.0
2013-Sep-08 14:32N 38°56' E 118°14'0 0.0
2013-Sep-07 22:05N 38°56' E 118°14'0 0.3
2013-Sep-07 21:23N 38°56' E 118°14'0 0.0
2013-Sep-07 13:26N 38°56' E 118°14'0 0.0
2013-Sep-07 11:07N 38°56' E 118°14'0 0.0
2013-Sep-07 10:22N 38°56' E 118°14'0 0.0
2013-Sep-07 09:31N 38°56' E 118°14'  
Track history (hours):
 
Tides and Currents Weather Stations Pressure Air Temp Water Temp Dewpoint Dewpoint Depression Visibility Wind Speed Wind Dir Waves Ship Positions

MaSS Merit

Last reported at 2013-Sep-16 22:29 UTC. Time now 2014-Nov-24 16:24 UTC.
Position N 31°55' E 120°10'.
Warning: this ship's position is years out of date!

Date/timePositionNaut miles runAvg speedWind from/ knotsBaromVisibWave heightAir tempDewpointWater temp
2013-Sep-16 22:29N 31°55' E 120°10'0 0.0
2013-Sep-16 21:33N 31°55' E 120°10'0 0.0
2013-Sep-16 16:08N 31°55' E 120°10'0 0.0
2013-Sep-16 15:33N 31°55' E 120°10'0 0.0
2013-Sep-16 14:26N 31°55' E 120°10'0 0.1
2013-Sep-16 13:32N 31°55' E 120°10'0 0.0
2013-Sep-16 12:33N 31°55' E 120°10'0 0.0
2013-Sep-16 11:33N 31°55' E 120°10'0 0.0
2013-Sep-16 10:33N 31°55' E 120°10'0 0.0
2013-Sep-16 09:33N 31°55' E 120°10'0 0.0
2013-Sep-16 08:33N 31°55' E 120°10'0 0.0
2013-Sep-16 07:33N 31°55' E 120°10'0 0.0
2013-Sep-16 06:34N 31°55' E 120°10'0 0.0
2013-Sep-16 05:33N 31°55' E 120°10'0 0.0
2013-Sep-16 04:33N 31°55' E 120°10'0 0.0
2013-Sep-16 03:33N 31°55' E 120°10'0 0.0
2013-Sep-16 02:33N 31°55' E 120°10'0 0.0
2013-Sep-16 01:33N 31°55' E 120°10'0 0.0
2013-Sep-16 00:31N 31°55' E 120°10'0 0.0
2013-Sep-15 23:32N 31°55' E 120°10'0 0.0
2013-Sep-15 22:28N 31°55' E 120°10'0 0.0
2013-Sep-15 21:33N 31°55' E 120°10'0 0.0
2013-Sep-15 20:31N 31°55' E 120°10'0 0.0
2013-Sep-15 19:33N 31°55' E 120°10'0 0.0
2013-Sep-15 18:33N 31°55' E 120°10'0 0.0
2013-Sep-15 17:33N 31°55' E 120°10'0 0.0
2013-Sep-15 16:33N 31°55' E 120°10'0 0.0
2013-Sep-15 15:33N 31°55' E 120°10'0 0.0
2013-Sep-15 14:34N 31°55' E 120°10'0 0.0
2013-Sep-15 13:33N 31°55' E 120°10'0 0.0
2013-Sep-15 12:33N 31°55' E 120°10'0 0.0
2013-Sep-15 11:34N 31°55' E 120°10'0 0.0
2013-Sep-15 10:33N 31°55' E 120°10'0 0.0
2013-Sep-15 09:34N 31°55' E 120°10'0 0.0
2013-Sep-15 08:33N 31°55' E 120°10'0 0.0
2013-Sep-15 07:33N 31°55' E 120°10'0 0.0
2013-Sep-15 06:34N 31°55' E 120°10'0 0.0
2013-Sep-15 05:33N 31°55' E 120°10'0 0.1
2013-Sep-15 04:33N 31°55' E 120°10'3 3.4
2013-Sep-15 03:34N 31°56' E 120°14'8 7.5
2013-Sep-15 02:34N 31°60' E 120°22'7 7.1
2013-Sep-15 01:33N 32°04' E 120°28'7 6.6
2013-Sep-15 00:34N 32°01' E 120°35'4 4.3
2013-Sep-14 23:33N 32°00' E 120°40'5 5.0
2013-Sep-14 22:33N 32°01' E 120°46'6 5.8
2013-Sep-14 21:33N 31°58' E 120°52'6 6.2
2013-Sep-14 20:33N 31°52' E 120°54'6 5.9
2013-Sep-14 19:33N 31°47' E 120°58'6 6.2
2013-Sep-14 18:33N 31°45' E 121°05'7 6.6
2013-Sep-14 17:32N 31°41' E 121°11'7 6.8
2013-Sep-14 16:33N 31°37' E 121°17'7 7.2
2013-Sep-14 15:33N 31°32' E 121°23'8 7.8
2013-Sep-14 14:33N 31°26' E 121°29'8 8.0
2013-Sep-14 13:33N 31°22' E 121°37'9 8.7
2013-Sep-14 12:33N 31°17' E 121°45'10 9.5
2013-Sep-14 11:28N 31°09' E 121°53'17 8.2
2013-Sep-14 09:22N 31°03' E 122°12'6 6.8
2013-Sep-14 08:32N 31°02' E 122°19'6 6.2
2013-Sep-14 07:33N 31°01' E 122°26'7 6.4
2013-Sep-14 06:32N 30°60' E 122°33'7 6.8
2013-Sep-14 05:33N 30°58' E 122°41'4 3.1
2013-Sep-14 04:26N 30°59' E 122°45'4 3.7
2013-Sep-14 03:14N 30°59' E 122°50'338 8.2
2013-Sep-12 10:05N 36°36' E 122°42'5 8.5
2013-Sep-12 09:29N 36°41' E 122°43'8 9.0
2013-Sep-12 08:33N 36°50' E 122°45'9 9.2
2013-Sep-12 07:33N 36°59' E 122°45'9 9.3
2013-Sep-12 06:33N 37°08' E 122°47'9 9.0
2013-Sep-12 05:33N 37°17' E 122°48'9 8.3
2013-Sep-12 04:29N 37°26' E 122°47'7 7.3
2013-Sep-12 03:31N 37°32' E 122°42'8 7.1
2013-Sep-12 02:28N 37°38' E 122°37'7 7.1
2013-Sep-12 01:32N 37°42' E 122°31'10 7.5
2013-Sep-12 00:15N 37°47' E 122°20'6 8.1
2013-Sep-11 23:28N 37°50' E 122°13'9 8.5
2013-Sep-11 22:25N 37°56' E 122°04'43 8.4
2013-Sep-11 17:13N 38°21' E 121°19'7 8.5
2013-Sep-11 16:25N 38°24' E 121°12'8 8.9
2013-Sep-11 15:30N 38°29' E 121°04'13 9.7
2013-Sep-11 14:12N 38°35' E 120°49'610.1
2013-Sep-11 13:33N 38°39' E 120°42'38 8.6
2013-Sep-11 09:08N 39°08' E 120°11'5 7.7
2013-Sep-11 08:33N 39°11' E 120°07'39 7.7
2013-Sep-11 03:31N 39°44' E 119°40'4 2.5
2013-Sep-11 02:08N 39°45' E 119°36'0 0.1
2013-Sep-11 01:08N 39°45' E 119°36'0 0.1
2013-Sep-11 00:32N 39°45' E 119°36'0 0.2
2013-Sep-10 23:32N 39°45' E 119°36'0 0.0
2013-Sep-10 22:26N 39°45' E 119°36'0 0.0
2013-Sep-10 21:32N 39°45' E 119°36'0 0.1
2013-Sep-10 20:32N 39°45' E 119°36'0 0.1
2013-Sep-10 19:32N 39°45' E 119°36'0 0.0
2013-Sep-10 18:32N 39°45' E 119°36'0 0.0
2013-Sep-10 17:08N 39°45' E 119°36'0 0.0
2013-Sep-10 15:31N 39°45' E 119°36'0 0.0
2013-Sep-10 14:31N 39°45' E 119°36'0 0.0
2013-Sep-10 13:31N 39°45' E 119°36'0 0.0
2013-Sep-10 12:31N 39°45' E 119°36'0 0.1
2013-Sep-10 11:25N 39°45' E 119°36'0 0.1
2013-Sep-10 10:19N 39°45' E 119°36'0 0.1
2013-Sep-10 06:32N 39°45' E 119°36'5 5.0
2013-Sep-10 05:33N 39°44' E 119°43'83 4.0
2013-Sep-09 08:30N 38°54' E 118°17'3 0.3
2013-Sep-08 20:32N 38°56' E 118°14'0 0.0
2013-Sep-08 19:23N 38°56' E 118°14'0 0.0
2013-Sep-08 14:32N 38°56' E 118°14'0 0.0
2013-Sep-07 22:05N 38°56' E 118°14'0 0.3
2013-Sep-07 21:23N 38°56' E 118°14'0 0.0
2013-Sep-07 13:26N 38°56' E 118°14'0 0.0
2013-Sep-07 11:07N 38°56' E 118°14'0 0.0
2013-Sep-07 10:22N 38°56' E 118°14'0 0.0
2013-Sep-07 09:31N 38°56' E 118°14'  

Dump ship's entire track history